Talmage, KS

6:11 AM CDT on July 07, 2015 (GMT -0500)
Solomon Fire Department | | Change Station
CLOSE
Current Station
Personal Weather Station
Location: Solomon, KS
Elevation: 1224 ft
Nearby Weather Stations

Elev 1224 ft 38.93 °N, 97.37 °W | Updated 51 seconds ago

Overcast
Overcast
64.5 °F
Feels Like 64.5 °F
N
7.0
Wind Variable Wind from NNE
Gusts 7.0 mph

Today
High -- | Low -- °F
--% Chance of Precip.
Yesterday
High -- | Low -- °F
Precip. -- in
6:10 AM 8:57 PM
Waning Gibbous, 66% visible
Pressure 30.04 in
Visibility 4.0 miles
Clouds Scattered Clouds 4200 ft
Mostly Cloudy 6000 ft
Dew Point 60 °F
Humidity 86%
Rainfall 0.00 in
Snow Depth Not available.
UV 0 out of 12
Pollen 2.40 out of 12
Air Quality Not available.
Flu Activity Not available.
METAR KSLN 071053Z 02012KT 4SM HZ SCT042 BKN060 19/14 A3007 RMK AO2 SLP172 T01940144

More Conditions Fewer Conditions

Pressure 30.04 in
Visibility 4.0 miles
Clouds Scattered Clouds 4200 ft
Mostly Cloudy 6000 ft
Dew Point 60 °F
Humidity 86%
Rainfall 0.00 in
Snow Depth Not available.
UV 0 out of 12
Pollen 2.40 out of 12
Air Quality Not available.
Flu Activity Not available.
METAR KSLN 071053Z 02012KT 4SM HZ SCT042 BKN060 19/14 A3007 RMK AO2 SLP172 T01940144

More Conditions Fewer Conditions

10-Day Weather Forecast

×

Almanac

Astronomy

Jul. 07, 2015 Rise Set
Actual Time
Civil Twilight
Nautical Twilight
Astronomical Twilight
Moon
Length of Visible Light
Length of Day
Tomorrow will be .
, % of the Moon is Illuminated

Today's Extremes

State Highs State Lows

Community

WunderPhotos

Upload Photos

1,835,767 photos uploaded!

WunderBlogs® & News

Nearby

Air Quality

  Air Quality AQ Index Pollutant
Not available.

Snow Depth

Station Depth Elevation

Earthquake Activity

City Distance Mag. Time & Date
Minimum magnitude displayed is 2.5.

Coastal Water Temperatures

Place Temperature

Stations

Nearby Weather Stations

Station Location Temp. Windchill Dew Point Humidity Wind Precip. Elev Updated Type